EZY67MW EGNT-LTBS
Flight info
| Callsign | EZY67MW |
|---|---|
| Flight time | N/A |
| Altitude | 37000 |
| Route | GIRLI P18 GASKO Y250 MAMUL L603 LAMSO DCT EVELI DCT NIGUG DCT TIVUN DCT ESAMA DCT OSBIT DCT TENLO DCT LAMSI DCT SITNI DCT SASAL DCT SOGMO DCT BABIT DCT KOTUS DCT OKLOP DCT NISVA DCT USALI DCT OTKOK DCT RODIP UN131 DUGLA UT350 NEXAM |
| Aircraft | A20N/M-SDE2E3FGHIJ1RWXYZ/LB1 |
Departure
| Time | 2026-04-27 14:57 |
|---|---|
| Airport | Newcastle International Airport (EGNT) |
Arrival
| Time | N/A |
|---|---|
| Airport | Dalaman International Airport (LTBS) |
| Time | Latitude | Longitude | Altitude | Speed | Heading |
|---|---|---|---|---|---|
| 2026-04-27 14:27 | 55.03661 | -1.70780 | 267 ft | 0 kts | 4° |
| 2026-04-27 14:48 | 55.03623 | -1.70787 | 267 ft | 4 kts | 27° |
| 2026-04-27 14:48 | 55.03604 | -1.70819 | 267 ft | 4 kts | 56° |
| 2026-04-27 14:49 | 55.03590 | -1.70842 | 267 ft | 2 kts | 11° |
| 2026-04-27 14:49 | 55.03573 | -1.70847 | 267 ft | 1 kts | 4° |
| 2026-04-27 14:51 | 55.03585 | -1.70844 | 267 ft | 3 kts | 14° |
| 2026-04-27 14:51 | 55.03595 | -1.70793 | 267 ft | 6 kts | 77° |
| 2026-04-27 14:51 | 55.03595 | -1.70761 | 267 ft | 2 kts | 90° |
| 2026-04-27 14:51 | 55.03595 | -1.70732 | 267 ft | 5 kts | 91° |
| 2026-04-27 14:52 | 55.03559 | -1.70652 | 267 ft | 10 kts | 166° |
| 2026-04-27 14:52 | 55.03511 | -1.70644 | 267 ft | 1 kts | 176° |
| 2026-04-27 14:52 | 55.03498 | -1.70643 | 267 ft | 2 kts | 177° |
| 2026-04-27 14:52 | 55.03464 | -1.70641 | 267 ft | 7 kts | 178° |
| 2026-04-27 14:53 | 55.03452 | -1.70641 | 267 ft | 0 kts | 178° |
| 2026-04-27 14:54 | 55.03451 | -1.70641 | 267 ft | 1 kts | 178° |
| 2026-04-27 14:54 | 55.03430 | -1.70640 | 267 ft | 9 kts | 178° |
| 2026-04-27 14:55 | 55.03391 | -1.70631 | 267 ft | 12 kts | 161° |
| 2026-04-27 14:55 | 55.03385 | -1.70625 | 267 ft | 0 kts | 148° |
| 2026-04-27 14:55 | 55.03376 | -1.70610 | 267 ft | 5 kts | 126° |
| 2026-04-27 14:55 | 55.03389 | -1.70500 | 266 ft | 14 kts | 68° |
| 2026-04-27 14:56 | 55.03393 | -1.70486 | 266 ft | 0 kts | 66° |
| 2026-04-27 14:56 | 55.03402 | -1.70449 | 266 ft | 19 kts | 66° |
| 2026-04-27 14:56 | 55.03489 | -1.70116 | 263 ft | 72 kts | 64° |
| 2026-04-27 14:57 | 55.03795 | -1.69005 | 254 ft | 134 kts | 64° |
| 2026-04-27 14:57 | 55.04205 | -1.67448 | 829 ft | 139 kts | 64° |
| 2026-04-27 14:57 | 55.04576 | -1.65864 | 1592 ft | 142 kts | 64° |
| 2026-04-27 14:57 | 55.04923 | -1.64230 | 2228 ft | 145 kts | 66° |
| 2026-04-27 14:58 | 55.05258 | -1.62515 | 2685 ft | 162 kts | 65° |
| 2026-04-27 14:58 | 55.05745 | -1.60762 | 3059 ft | 176 kts | 57° |
| 2026-04-27 14:58 | 55.06376 | -1.58814 | 3762 ft | 182 kts | 57° |
| 2026-04-27 14:58 | 55.06828 | -1.57041 | 4366 ft | 188 kts | 76° |
| 2026-04-27 14:59 | 55.06648 | -1.54748 | 5069 ft | 200 kts | 114° |
| 2026-04-27 14:59 | 55.05677 | -1.53014 | 5737 ft | 208 kts | 153° |
| 2026-04-27 14:59 | 55.04261 | -1.52501 | 6421 ft | 212 kts | 181° |
| 2026-04-27 14:59 | 55.02779 | -1.52678 | 7051 ft | 217 kts | 187° |
| 2026-04-27 15:00 | 55.01205 | -1.52965 | 7418 ft | 238 kts | 186° |
| 2026-04-27 15:00 | 54.99483 | -1.53175 | 7724 ft | 261 kts | 184° |
| 2026-04-27 15:00 | 54.97617 | -1.53633 | 8121 ft | 282 kts | 198° |
| 2026-04-27 15:00 | 54.95791 | -1.55028 | 8706 ft | 291 kts | 213° |
| 2026-04-27 15:01 | 54.94046 | -1.56878 | 9530 ft | 295 kts | 213° |
| 2026-04-27 15:01 | 54.92274 | -1.58720 | 10368 ft | 299 kts | 212° |
| 2026-04-27 15:01 | 54.90445 | -1.60602 | 10852 ft | 315 kts | 212° |
| 2026-04-27 15:01 | 54.88490 | -1.62612 | 11079 ft | 338 kts | 212° |
| 2026-04-27 15:02 | 54.86416 | -1.64739 | 11537 ft | 350 kts | 212° |
| 2026-04-27 15:02 | 54.84374 | -1.66825 | 12251 ft | 354 kts | 213° |
| 2026-04-27 15:02 | 54.82268 | -1.68975 | 12954 ft | 359 kts | 213° |
| 2026-04-27 15:02 | 54.80133 | -1.71152 | 13654 ft | 363 kts | 213° |
| 2026-04-27 15:03 | 54.77929 | -1.73400 | 14348 ft | 367 kts | 213° |
| 2026-04-27 15:03 | 54.75715 | -1.75658 | 14973 ft | 371 kts | 213° |
| 2026-04-27 15:03 | 54.73587 | -1.77823 | 15586 ft | 375 kts | 213° |
| 2026-04-27 15:03 | 54.71242 | -1.79790 | 16209 ft | 381 kts | 204° |
| 2026-04-27 15:04 | 54.68687 | -1.81143 | 16838 ft | 388 kts | 195° |
| 2026-04-27 15:04 | 54.66007 | -1.81989 | 17447 ft | 393 kts | 192° |
| 2026-04-27 15:04 | 54.63287 | -1.82821 | 18083 ft | 397 kts | 193° |
| 2026-04-27 15:04 | 54.60550 | -1.83672 | 18692 ft | 401 kts | 193° |
| 2026-04-27 15:05 | 54.57784 | -1.84540 | 19158 ft | 406 kts | 193° |
| 2026-04-27 15:05 | 54.54983 | -1.85422 | 19635 ft | 411 kts | 193° |
| 2026-04-27 15:05 | 54.52178 | -1.86305 | 20089 ft | 417 kts | 193° |
| 2026-04-27 15:05 | 54.49308 | -1.87207 | 20559 ft | 422 kts | 193° |
| 2026-04-27 15:06 | 54.46401 | -1.88119 | 21022 ft | 427 kts | 194° |
| 2026-04-27 15:06 | 54.43456 | -1.89038 | 21452 ft | 432 kts | 194° |
| 2026-04-27 15:06 | 54.40613 | -1.89925 | 21881 ft | 437 kts | 194° |
| 2026-04-27 15:06 | 54.37561 | -1.90878 | 22311 ft | 442 kts | 194° |
| 2026-04-27 15:07 | 54.34561 | -1.91813 | 22754 ft | 447 kts | 194° |
| 2026-04-27 15:07 | 54.31468 | -1.92778 | 23184 ft | 452 kts | 194° |
| 2026-04-27 15:07 | 54.28343 | -1.93751 | 23593 ft | 458 kts | 194° |
| 2026-04-27 15:07 | 54.25169 | -1.94601 | 23989 ft | 466 kts | 187° |
| 2026-04-27 15:08 | 54.21935 | -1.94351 | 24346 ft | 474 kts | 172° |
| 2026-04-27 15:08 | 54.18750 | -1.92792 | 24743 ft | 478 kts | 156° |
| 2026-04-27 15:08 | 54.15835 | -1.90052 | 25111 ft | 479 kts | 144° |
| 2026-04-27 15:08 | 54.13113 | -1.86758 | 25516 ft | 481 kts | 142° |
| 2026-04-27 15:09 | 54.10384 | -1.83445 | 25911 ft | 483 kts | 143° |
| 2026-04-27 15:09 | 54.07584 | -1.80240 | 26279 ft | 486 kts | 145° |
| 2026-04-27 15:09 | 54.04719 | -1.77131 | 26679 ft | 489 kts | 147° |
| 2026-04-27 15:09 | 54.01820 | -1.74084 | 27033 ft | 492 kts | 147° |
| 2026-04-27 15:10 | 53.98948 | -1.71112 | 27405 ft | 494 kts | 148° |
| 2026-04-27 15:10 | 53.96000 | -1.68078 | 27760 ft | 496 kts | 148° |
| 2026-04-27 15:10 | 53.93029 | -1.65025 | 28100 ft | 499 kts | 148° |
| 2026-04-27 15:10 | 53.90047 | -1.61964 | 28421 ft | 501 kts | 148° |
| 2026-04-27 15:11 | 53.87052 | -1.58893 | 28754 ft | 503 kts | 148° |
| 2026-04-27 15:11 | 53.84042 | -1.55810 | 29059 ft | 506 kts | 148° |
| 2026-04-27 15:11 | 53.81019 | -1.52719 | 29360 ft | 508 kts | 148° |
| 2026-04-27 15:11 | 53.77990 | -1.49627 | 29645 ft | 510 kts | 148° |
| 2026-04-27 15:12 | 53.74943 | -1.46522 | 29927 ft | 513 kts | 148° |
| 2026-04-27 15:12 | 53.71876 | -1.43403 | 30220 ft | 515 kts | 148° |
| 2026-04-27 15:12 | 53.68785 | -1.40264 | 30463 ft | 517 kts | 148° |
| 2026-04-27 15:12 | 53.65696 | -1.37133 | 30752 ft | 518 kts | 148° |
| 2026-04-27 15:13 | 53.62625 | -1.34040 | 31044 ft | 518 kts | 150° |
| 2026-04-27 15:13 | 53.59324 | -1.31443 | 31308 ft | 518 kts | 162° |
| 2026-04-27 15:13 | 53.55862 | -1.29866 | 31636 ft | 514 kts | 173° |
| 2026-04-27 15:13 | 53.52312 | -1.29223 | 31997 ft | 510 kts | 178° |
| 2026-04-27 15:14 | 53.48831 | -1.28170 | 32335 ft | 513 kts | 165° |
| 2026-04-27 15:14 | 53.45542 | -1.26055 | 32679 ft | 513 kts | 153° |
| 2026-04-27 15:14 | 53.42565 | -1.22977 | 33024 ft | 511 kts | 141° |
| 2026-04-27 15:14 | 53.39957 | -1.18978 | 33380 ft | 506 kts | 129° |
| 2026-04-27 15:15 | 53.37873 | -1.14271 | 33719 ft | 500 kts | 117° |
| 2026-04-27 15:15 | 53.36389 | -1.09051 | 34047 ft | 493 kts | 105° |
| 2026-04-27 15:15 | 53.35556 | -1.03535 | 34334 ft | 484 kts | 93° |
| 2026-04-27 15:15 | 53.35195 | -0.97962 | 34537 ft | 482 kts | 91° |
| 2026-04-27 15:16 | 53.34762 | -0.92382 | 34734 ft | 485 kts | 95° |
| 2026-04-27 15:16 | 53.34088 | -0.86828 | 34936 ft | 487 kts | 99° |
| 2026-04-27 15:16 | 53.33225 | -0.81324 | 35150 ft | 488 kts | 102° |
| 2026-04-27 15:16 | 53.32260 | -0.75869 | 35351 ft | 488 kts | 103° |
| 2026-04-27 15:17 | 53.31250 | -0.70435 | 35549 ft | 488 kts | 104° |
| 2026-04-27 15:17 | 53.30227 | -0.65019 | 35746 ft | 488 kts | 104° |
| 2026-04-27 15:17 | 53.29216 | -0.59681 | 35935 ft | 488 kts | 104° |
| 2026-04-27 15:17 | 53.28191 | -0.54267 | 36117 ft | 488 kts | 104° |
| 2026-04-27 15:18 | 53.27168 | -0.48859 | 36305 ft | 487 kts | 104° |
| 2026-04-27 15:18 | 53.26147 | -0.43472 | 36486 ft | 486 kts | 105° |
| 2026-04-27 15:18 | 53.25123 | -0.38084 | 36655 ft | 486 kts | 105° |
| 2026-04-27 15:18 | 53.24096 | -0.32690 | 36835 ft | 485 kts | 105° |
| 2026-04-27 15:19 | 53.23084 | -0.27392 | 36999 ft | 485 kts | 105° |
| 2026-04-27 15:19 | 53.22056 | -0.22028 | 37164 ft | 484 kts | 105° |
| 2026-04-27 15:19 | 53.19995 | -0.11313 | 37263 ft | 483 kts | 105° |
| 2026-04-27 15:20 | 53.17933 | -0.00660 | 37264 ft | 483 kts | 106° |
| 2026-04-27 15:20 | 53.15877 | 0.09911 | 37265 ft | 483 kts | 106° |
| 2026-04-27 15:21 | 53.13804 | 0.20510 | 37271 ft | 483 kts | 106° |
| 2026-04-27 15:21 | 53.11714 | 0.31135 | 37277 ft | 483 kts | 106° |
| 2026-04-27 15:22 | 53.09613 | 0.41762 | 37282 ft | 483 kts | 107° |
| 2026-04-27 15:22 | 53.07554 | 0.52116 | 37283 ft | 483 kts | 107° |
| 2026-04-27 15:23 | 53.05426 | 0.62758 | 37281 ft | 484 kts | 107° |
| 2026-04-27 15:23 | 53.03288 | 0.73391 | 37284 ft | 484 kts | 107° |
| 2026-04-27 15:24 | 53.01154 | 0.83946 | 37282 ft | 484 kts | 107° |
| 2026-04-27 15:24 | 52.98997 | 0.94564 | 37279 ft | 485 kts | 108° |
| 2026-04-27 15:25 | 52.97239 | 1.05361 | 37277 ft | 483 kts | 99° |
| 2026-04-27 15:25 | 52.96003 | 1.16267 | 37278 ft | 484 kts | 99° |
| 2026-04-27 15:26 | 52.94733 | 1.27249 | 37273 ft | 484 kts | 99° |
| 2026-04-27 15:26 | 52.93453 | 1.38178 | 37267 ft | 484 kts | 99° |
| 2026-04-27 15:27 | 52.92156 | 1.49154 | 37263 ft | 484 kts | 100° |
| 2026-04-27 15:27 | 52.90851 | 1.60111 | 37280 ft | 485 kts | 100° |
| 2026-04-27 15:28 | 52.89531 | 1.71092 | 37263 ft | 485 kts | 100° |
| 2026-04-27 15:28 | 52.88193 | 1.82140 | 37268 ft | 485 kts | 100° |
| 2026-04-27 15:29 | 52.87072 | 1.91326 | 37272 ft | 485 kts | 101° |
| 2026-04-27 15:29 | 52.85724 | 2.02283 | 37288 ft | 486 kts | 101° |
| 2026-04-27 15:30 | 52.84367 | 2.13232 | 37273 ft | 486 kts | 101° |
| 2026-04-27 15:30 | 52.82996 | 2.24196 | 37279 ft | 486 kts | 101° |
| 2026-04-27 15:31 | 52.81624 | 2.35090 | 37272 ft | 486 kts | 101° |
| 2026-04-27 15:31 | 52.80232 | 2.46046 | 37277 ft | 486 kts | 101° |
| 2026-04-27 15:32 | 52.78834 | 2.56986 | 37279 ft | 486 kts | 101° |
| 2026-04-27 15:32 | 52.77430 | 2.67859 | 37284 ft | 486 kts | 102° |
| 2026-04-27 15:33 | 52.76006 | 2.78807 | 37292 ft | 486 kts | 102° |
| 2026-04-27 15:33 | 52.74575 | 2.89733 | 37278 ft | 486 kts | 102° |
| 2026-04-27 15:34 | 52.73001 | 3.00481 | 37285 ft | 485 kts | 108° |
| 2026-04-27 15:34 | 52.70583 | 3.10995 | 37281 ft | 485 kts | 111° |
| 2026-04-27 15:35 | 52.68159 | 3.21267 | 37292 ft | 484 kts | 112° |
| 2026-04-27 15:35 | 52.65697 | 3.31675 | 37286 ft | 484 kts | 112° |
| 2026-04-27 15:36 | 52.63101 | 3.41816 | 37288 ft | 482 kts | 118° |
| 2026-04-27 15:36 | 52.60086 | 3.51675 | 37280 ft | 482 kts | 118° |
| 2026-04-27 15:37 | 52.57080 | 3.61536 | 37287 ft | 481 kts | 118° |
| 2026-04-27 15:37 | 52.54067 | 3.71379 | 37273 ft | 481 kts | 118° |
| 2026-04-27 15:38 | 52.51136 | 3.80912 | 37275 ft | 480 kts | 118° |
| 2026-04-27 15:38 | 52.48108 | 3.90723 | 37280 ft | 480 kts | 118° |
| 2026-04-27 15:39 | 52.45080 | 4.00491 | 37265 ft | 480 kts | 118° |
| 2026-04-27 15:39 | 52.42049 | 4.10230 | 37253 ft | 480 kts | 118° |
| 2026-04-27 15:40 | 52.39005 | 4.19971 | 37264 ft | 480 kts | 118° |
| 2026-04-27 15:40 | 52.36504 | 4.27946 | 37261 ft | 480 kts | 119° |
| 2026-04-27 15:41 | 52.33479 | 4.37560 | 37249 ft | 480 kts | 119° |
| 2026-04-27 15:41 | 52.30517 | 4.46932 | 37257 ft | 481 kts | 119° |
| 2026-04-27 15:42 | 52.27431 | 4.56663 | 37250 ft | 482 kts | 119° |
| 2026-04-27 15:42 | 52.24339 | 4.66373 | 37257 ft | 482 kts | 119° |
| 2026-04-27 15:43 | 52.21261 | 4.76001 | 37262 ft | 483 kts | 119° |
| 2026-04-27 15:43 | 52.18153 | 4.85683 | 37258 ft | 483 kts | 119° |
| 2026-04-27 15:44 | 52.15020 | 4.95405 | 37258 ft | 484 kts | 120° |
| 2026-04-27 15:44 | 52.11902 | 5.05042 | 37255 ft | 484 kts | 120° |
| 2026-04-27 15:45 | 52.08781 | 5.14650 | 37247 ft | 485 kts | 120° |
| 2026-04-27 15:45 | 52.05621 | 5.24343 | 37244 ft | 485 kts | 120° |
| 2026-04-27 15:46 | 52.02190 | 5.33692 | 37239 ft | 484 kts | 125° |
| 2026-04-27 15:46 | 51.98548 | 5.42899 | 37244 ft | 484 kts | 125° |
| 2026-04-27 15:47 | 51.94935 | 5.52046 | 37244 ft | 484 kts | 125° |
| 2026-04-27 15:47 | 51.91281 | 5.61247 | 37238 ft | 484 kts | 125° |
| 2026-04-27 15:48 | 51.87618 | 5.70431 | 37239 ft | 485 kts | 126° |
| 2026-04-27 15:49 | 51.82130 | 5.84123 | 37221 ft | 485 kts | 126° |
| 2026-04-27 15:49 | 51.78442 | 5.93286 | 37222 ft | 485 kts | 126° |
| 2026-04-27 15:50 | 51.74764 | 6.02389 | 37220 ft | 485 kts | 126° |
| 2026-04-27 15:50 | 51.71068 | 6.11507 | 37213 ft | 485 kts | 126° |
| 2026-04-27 15:51 | 51.67365 | 6.20610 | 37215 ft | 485 kts | 126° |
| 2026-04-27 15:51 | 51.63674 | 6.29648 | 37216 ft | 485 kts | 126° |
| 2026-04-27 15:52 | 51.59947 | 6.38747 | 37210 ft | 485 kts | 126° |
| 2026-04-27 15:52 | 51.56215 | 6.47823 | 37209 ft | 485 kts | 126° |
| 2026-04-27 15:53 | 51.52525 | 6.56765 | 37205 ft | 485 kts | 126° |
| 2026-04-27 15:53 | 51.48777 | 6.65818 | 37213 ft | 485 kts | 127° |
| 2026-04-27 15:54 | 51.45020 | 6.74861 | 37206 ft | 485 kts | 127° |
| 2026-04-27 15:54 | 51.41283 | 6.83822 | 37209 ft | 486 kts | 127° |
| 2026-04-27 15:55 | 51.37519 | 6.92818 | 37209 ft | 486 kts | 127° |
| 2026-04-27 15:55 | 51.33751 | 7.01793 | 37209 ft | 486 kts | 127° |
| 2026-04-27 15:56 | 51.29967 | 7.10774 | 37214 ft | 486 kts | 127° |
| 2026-04-27 15:56 | 51.26203 | 7.19676 | 37219 ft | 486 kts | 127° |
| 2026-04-27 15:57 | 51.22407 | 7.28624 | 37211 ft | 486 kts | 127° |
| 2026-04-27 15:57 | 51.18625 | 7.37508 | 37200 ft | 486 kts | 127° |
| 2026-04-27 15:58 | 51.14820 | 7.46418 | 37196 ft | 486 kts | 127° |
| 2026-04-27 15:58 | 51.11072 | 7.55162 | 37205 ft | 485 kts | 127° |
| 2026-04-27 15:59 | 51.07279 | 7.63982 | 37196 ft | 485 kts | 127° |
| 2026-04-27 15:59 | 51.03458 | 7.72836 | 37200 ft | 485 kts | 127° |
| 2026-04-27 16:00 | 50.99628 | 7.81681 | 37190 ft | 484 kts | 127° |
| 2026-04-27 16:00 | 50.95837 | 7.90410 | 37186 ft | 484 kts | 127° |
| 2026-04-27 16:01 | 50.91799 | 7.98898 | 37185 ft | 480 kts | 135° |
| 2026-04-27 16:01 | 50.87085 | 8.06329 | 37188 ft | 477 kts | 140° |
| 2026-04-27 16:02 | 50.82293 | 8.13616 | 37188 ft | 477 kts | 140° |
| 2026-04-27 16:02 | 50.77540 | 8.20853 | 37180 ft | 476 kts | 140° |
| 2026-04-27 16:03 | 50.72749 | 8.28124 | 37179 ft | 476 kts | 140° |
| 2026-04-27 16:03 | 50.68213 | 8.34985 | 37183 ft | 475 kts | 140° |
| 2026-04-27 16:04 | 50.63435 | 8.42192 | 37178 ft | 475 kts | 140° |
| 2026-04-27 16:04 | 50.58674 | 8.49351 | 37174 ft | 475 kts | 140° |
| 2026-04-27 16:05 | 50.54688 | 8.55330 | 37173 ft | 475 kts | 140° |
| 2026-04-27 16:05 | 50.49105 | 8.63678 | 37167 ft | 475 kts | 140° |
| 2026-04-27 16:06 | 50.45086 | 8.69671 | 37171 ft | 475 kts | 140° |
| 2026-04-27 16:06 | 50.40312 | 8.76769 | 37165 ft | 476 kts | 140° |
| 2026-04-27 16:07 | 50.35675 | 8.84205 | 37169 ft | 479 kts | 131° |
| 2026-04-27 16:07 | 50.32056 | 8.92996 | 37165 ft | 482 kts | 117° |
| 2026-04-27 16:08 | 50.29295 | 9.02564 | 37165 ft | 483 kts | 115° |
| 2026-04-27 16:08 | 50.26530 | 9.12132 | 37167 ft | 484 kts | 116° |
| 2026-04-27 16:09 | 50.23756 | 9.21645 | 37173 ft | 484 kts | 116° |
| 2026-04-27 16:09 | 50.19540 | 9.36020 | 37179 ft | 485 kts | 116° |
| 2026-04-27 16:10 | 50.13902 | 9.55116 | 37171 ft | 482 kts | 116° |
| 2026-04-27 16:11 | 50.09656 | 9.69398 | 37173 ft | 483 kts | 116° |
| 2026-04-27 16:12 | 50.04944 | 9.83220 | 37175 ft | 481 kts | 125° |
| 2026-04-27 16:13 | 49.99431 | 9.96204 | 37185 ft | 482 kts | 125° |
| 2026-04-27 16:13 | 49.93881 | 10.09274 | 37195 ft | 482 kts | 125° |
| 2026-04-27 16:14 | 49.86494 | 10.26560 | 37182 ft | 481 kts | 125° |
| 2026-04-27 16:15 | 49.79068 | 10.43825 | 37182 ft | 480 kts | 125° |
| 2026-04-27 16:16 | 49.71637 | 10.60987 | 37173 ft | 480 kts | 125° |
| 2026-04-27 16:17 | 49.64198 | 10.78060 | 37164 ft | 480 kts | 126° |
| 2026-04-27 16:18 | 49.56705 | 10.95143 | 37156 ft | 480 kts | 126° |
| 2026-04-27 16:19 | 49.52994 | 11.03620 | 37152 ft | 480 kts | 123° |
| 2026-04-27 16:20 | 49.46866 | 11.21925 | 37159 ft | 481 kts | 117° |
| 2026-04-27 16:21 | 49.42350 | 11.35629 | 37160 ft | 481 kts | 117° |
| 2026-04-27 16:22 | 49.36267 | 11.53941 | 37166 ft | 481 kts | 118° |
| 2026-04-27 16:22 | 49.31693 | 11.67623 | 37165 ft | 481 kts | 118° |
| 2026-04-27 16:23 | 49.27096 | 11.81302 | 37158 ft | 481 kts | 118° |
| 2026-04-27 16:24 | 49.24002 | 11.90464 | 37161 ft | 480 kts | 118° |
| 2026-04-27 16:25 | 49.17861 | 12.08556 | 37160 ft | 480 kts | 118° |
| 2026-04-27 16:26 | 49.11640 | 12.26757 | 37162 ft | 480 kts | 118° |
| 2026-04-27 16:27 | 49.05423 | 12.44815 | 37159 ft | 480 kts | 118° |
| 2026-04-27 16:28 | 48.97612 | 12.67326 | 37153 ft | 479 kts | 118° |
| 2026-04-27 16:29 | 48.89741 | 12.89811 | 37156 ft | 479 kts | 118° |
| 2026-04-27 16:30 | 48.83965 | 13.06190 | 37152 ft | 480 kts | 119° |
| 2026-04-27 16:31 | 48.76034 | 13.28510 | 37148 ft | 480 kts | 119° |
| 2026-04-27 16:32 | 48.71231 | 13.41935 | 37142 ft | 480 kts | 119° |
| 2026-04-27 16:33 | 48.66438 | 13.55270 | 37146 ft | 480 kts | 120° |
| 2026-04-27 16:33 | 48.62797 | 13.63751 | 37149 ft | 479 kts | 127° |
| 2026-04-27 16:34 | 48.58918 | 13.71983 | 37156 ft | 479 kts | 126° |
| 2026-04-27 16:34 | 48.55059 | 13.80193 | 37149 ft | 479 kts | 126° |
| 2026-04-27 16:35 | 48.51182 | 13.88407 | 37140 ft | 478 kts | 127° |
| 2026-04-27 16:36 | 48.45382 | 14.00641 | 37143 ft | 477 kts | 127° |
| 2026-04-27 16:36 | 48.41500 | 14.08798 | 37137 ft | 477 kts | 127° |
| 2026-04-27 16:37 | 48.37633 | 14.16899 | 37135 ft | 477 kts | 127° |
| 2026-04-27 16:37 | 48.33770 | 14.24966 | 37125 ft | 477 kts | 127° |
| 2026-04-27 16:38 | 48.29884 | 14.33059 | 37125 ft | 477 kts | 127° |
| 2026-04-27 16:38 | 48.25982 | 14.41162 | 37149 ft | 478 kts | 127° |
| 2026-04-27 16:39 | 48.22073 | 14.49253 | 37138 ft | 477 kts | 127° |
| 2026-04-27 16:39 | 48.18185 | 14.57279 | 37142 ft | 475 kts | 127° |
| 2026-04-27 16:40 | 48.14270 | 14.65336 | 37156 ft | 475 kts | 127° |
| 2026-04-27 16:40 | 48.10375 | 14.73326 | 37154 ft | 474 kts | 127° |
| 2026-04-27 16:41 | 48.06482 | 14.81292 | 37149 ft | 474 kts | 127° |
| 2026-04-27 16:41 | 48.02658 | 14.89338 | 37153 ft | 474 kts | 125° |
| 2026-04-27 16:42 | 47.98937 | 14.97594 | 37154 ft | 475 kts | 125° |
| 2026-04-27 16:42 | 47.95299 | 15.05592 | 37159 ft | 474 kts | 125° |
| 2026-04-27 16:43 | 47.91567 | 15.13720 | 37151 ft | 473 kts | 125° |
| 2026-04-27 16:43 | 47.87856 | 15.21766 | 37152 ft | 473 kts | 125° |
| 2026-04-27 16:44 | 47.84100 | 15.29889 | 37147 ft | 473 kts | 126° |
| 2026-04-27 16:44 | 47.80471 | 15.37714 | 37148 ft | 472 kts | 126° |
| 2026-04-27 16:45 | 47.76729 | 15.45760 | 37142 ft | 472 kts | 126° |
| 2026-04-27 16:45 | 47.72988 | 15.53777 | 37142 ft | 471 kts | 126° |
| 2026-04-27 16:46 | 47.69260 | 15.61745 | 37145 ft | 471 kts | 126° |
| 2026-04-27 16:46 | 47.65514 | 15.69728 | 37143 ft | 471 kts | 126° |
| 2026-04-27 16:47 | 47.62282 | 15.76597 | 37141 ft | 472 kts | 126° |
| 2026-04-27 16:47 | 47.58543 | 15.84522 | 37139 ft | 472 kts | 126° |
| 2026-04-27 16:48 | 47.54934 | 15.92152 | 37134 ft | 472 kts | 126° |
| 2026-04-27 16:48 | 47.51142 | 16.00145 | 37134 ft | 473 kts | 126° |
| 2026-04-27 16:49 | 47.45464 | 16.12069 | 37141 ft | 473 kts | 126° |
| 2026-04-27 16:49 | 47.41673 | 16.20002 | 37138 ft | 474 kts | 126° |
| 2026-04-27 16:50 | 47.38475 | 16.26675 | 37144 ft | 475 kts | 126° |
| 2026-04-27 16:50 | 47.34646 | 16.34644 | 37149 ft | 476 kts | 126° |
| 2026-04-27 16:51 | 47.30810 | 16.42606 | 37158 ft | 476 kts | 126° |
| 2026-04-27 16:51 | 47.26834 | 16.50439 | 37165 ft | 476 kts | 130° |
| 2026-04-27 16:52 | 47.22700 | 16.57982 | 37156 ft | 474 kts | 130° |
| 2026-04-27 16:52 | 47.18561 | 16.65553 | 37157 ft | 473 kts | 130° |
| 2026-04-27 16:53 | 47.14543 | 16.72869 | 37158 ft | 473 kts | 130° |
| 2026-04-27 16:53 | 47.10399 | 16.80388 | 37159 ft | 472 kts | 130° |
| 2026-04-27 16:54 | 47.06274 | 16.87851 | 37160 ft | 472 kts | 130° |
| 2026-04-27 16:54 | 47.02133 | 16.95322 | 37166 ft | 472 kts | 130° |
| 2026-04-27 16:55 | 46.97981 | 17.02794 | 37161 ft | 471 kts | 130° |
| 2026-04-27 16:55 | 46.93799 | 17.10298 | 37154 ft | 471 kts | 130° |
| 2026-04-27 16:56 | 46.89672 | 17.17685 | 37155 ft | 471 kts | 131° |
| 2026-04-27 16:56 | 46.85525 | 17.25087 | 37155 ft | 471 kts | 131° |
| 2026-04-27 16:57 | 46.81357 | 17.32506 | 37157 ft | 472 kts | 131° |
| 2026-04-27 16:57 | 46.77401 | 17.39531 | 37155 ft | 471 kts | 131° |
| 2026-04-27 16:58 | 46.73243 | 17.46892 | 37157 ft | 471 kts | 131° |
| 2026-04-27 16:58 | 46.69184 | 17.54063 | 37159 ft | 471 kts | 131° |
| 2026-04-27 16:59 | 46.65034 | 17.61372 | 37162 ft | 471 kts | 131° |
| 2026-04-27 16:59 | 46.60841 | 17.68741 | 37164 ft | 472 kts | 131° |
| 2026-04-27 17:00 | 46.54767 | 17.80056 | 37161 ft | 472 kts | 129° |
| 2026-04-27 17:01 | 46.50766 | 17.87584 | 37166 ft | 472 kts | 129° |
| 2026-04-27 17:01 | 46.46726 | 17.95113 | 37159 ft | 472 kts | 129° |
| 2026-04-27 17:02 | 46.42678 | 18.02623 | 37168 ft | 472 kts | 129° |
| 2026-04-27 17:02 | 46.38653 | 18.10069 | 37155 ft | 471 kts | 129° |
| 2026-04-27 17:03 | 46.34594 | 18.17558 | 37151 ft | 471 kts | 129° |
| 2026-04-27 17:03 | 46.30589 | 18.24931 | 37164 ft | 470 kts | 129° |
| 2026-04-27 17:04 | 46.26563 | 18.32320 | 37157 ft | 469 kts | 129° |
| 2026-04-27 17:04 | 46.22509 | 18.39742 | 37160 ft | 469 kts | 129° |
| 2026-04-27 17:05 | 46.18461 | 18.47133 | 37155 ft | 469 kts | 129° |
| 2026-04-27 17:05 | 46.14396 | 18.54535 | 37161 ft | 469 kts | 129° |
| 2026-04-27 17:06 | 46.10359 | 18.61867 | 37160 ft | 469 kts | 129° |
| 2026-04-27 17:06 | 46.06291 | 18.69238 | 37169 ft | 469 kts | 129° |
| 2026-04-27 17:07 | 46.02318 | 18.76415 | 37164 ft | 469 kts | 130° |
| 2026-04-27 17:07 | 45.98236 | 18.83773 | 37160 ft | 469 kts | 129° |
| 2026-04-27 17:08 | 45.94182 | 18.91059 | 37156 ft | 469 kts | 130° |
| 2026-04-27 17:08 | 45.90014 | 18.98300 | 37162 ft | 468 kts | 132° |
| 2026-04-27 17:09 | 45.85722 | 19.05364 | 37157 ft | 468 kts | 132° |
| 2026-04-27 17:09 | 45.81456 | 19.12417 | 37158 ft | 468 kts | 132° |
| 2026-04-27 17:10 | 45.77197 | 19.19480 | 37149 ft | 467 kts | 132° |
| 2026-04-27 17:10 | 45.72963 | 19.26491 | 37155 ft | 467 kts | 132° |
| 2026-04-27 17:11 | 45.68729 | 19.33484 | 37147 ft | 467 kts | 132° |
| 2026-04-27 17:11 | 45.62325 | 19.44025 | 37146 ft | 467 kts | 132° |
| 2026-04-27 17:12 | 45.55915 | 19.54537 | 37148 ft | 467 kts | 132° |
| 2026-04-27 17:13 | 45.51668 | 19.61481 | 37144 ft | 467 kts | 132° |
| 2026-04-27 17:13 | 45.47380 | 19.68473 | 37149 ft | 467 kts | 132° |
| 2026-04-27 17:14 | 45.43092 | 19.75449 | 37147 ft | 467 kts | 132° |
| 2026-04-27 17:14 | 45.38800 | 19.82414 | 37152 ft | 468 kts | 132° |
| 2026-04-27 17:15 | 45.34710 | 19.89034 | 37146 ft | 468 kts | 132° |
| 2026-04-27 17:15 | 45.30231 | 19.95761 | 37148 ft | 467 kts | 139° |
| 2026-04-27 17:16 | 45.25357 | 20.01863 | 37146 ft | 467 kts | 140° |
| 2026-04-27 17:16 | 45.20517 | 20.07946 | 37142 ft | 468 kts | 139° |
| 2026-04-27 17:17 | 45.15635 | 20.14071 | 37143 ft | 468 kts | 140° |
| 2026-04-27 17:17 | 45.10756 | 20.20177 | 37141 ft | 468 kts | 140° |
| 2026-04-27 17:18 | 45.03413 | 20.29338 | 37134 ft | 468 kts | 140° |
| 2026-04-27 17:18 | 44.98598 | 20.35326 | 37135 ft | 469 kts | 140° |
| 2026-04-27 17:19 | 44.93697 | 20.41408 | 37133 ft | 469 kts | 140° |
| 2026-04-27 17:19 | 44.88789 | 20.47483 | 37134 ft | 469 kts | 140° |
| 2026-04-27 17:20 | 44.83877 | 20.53550 | 37135 ft | 469 kts | 140° |
| 2026-04-27 17:20 | 44.79798 | 20.58577 | 37139 ft | 469 kts | 140° |
| 2026-04-27 17:21 | 44.74871 | 20.64635 | 37135 ft | 469 kts | 140° |
| 2026-04-27 17:21 | 44.69942 | 20.70682 | 37140 ft | 469 kts | 140° |
| 2026-04-27 17:22 | 44.65026 | 20.76699 | 37140 ft | 469 kts | 140° |
| 2026-04-27 17:22 | 44.60097 | 20.82719 | 37134 ft | 469 kts | 140° |
| 2026-04-27 17:23 | 44.55170 | 20.88721 | 37135 ft | 469 kts | 140° |
| 2026-04-27 17:23 | 44.50238 | 20.94715 | 37132 ft | 469 kts | 140° |
| 2026-04-27 17:24 | 44.45298 | 21.00706 | 37129 ft | 469 kts | 140° |
| 2026-04-27 17:24 | 44.40419 | 21.06608 | 37129 ft | 469 kts | 140° |
| 2026-04-27 17:25 | 44.35460 | 21.12593 | 37128 ft | 469 kts | 140° |
| 2026-04-27 17:25 | 44.30538 | 21.18521 | 37121 ft | 469 kts | 140° |
| 2026-04-27 17:26 | 44.25578 | 21.24480 | 37126 ft | 469 kts | 140° |
| 2026-04-27 17:26 | 44.20623 | 21.30420 | 37126 ft | 470 kts | 140° |
| 2026-04-27 17:27 | 44.15684 | 21.36386 | 37128 ft | 470 kts | 139° |
| 2026-04-27 17:27 | 44.10807 | 21.42478 | 37132 ft | 471 kts | 139° |
| 2026-04-27 17:28 | 44.05906 | 21.48583 | 37137 ft | 471 kts | 139° |
| 2026-04-27 17:29 | 43.98537 | 21.57697 | 37144 ft | 471 kts | 139° |
| 2026-04-27 17:29 | 43.93639 | 21.63732 | 37146 ft | 468 kts | 139° |
| 2026-04-27 17:30 | 43.88758 | 21.69732 | 37145 ft | 468 kts | 139° |
| 2026-04-27 17:30 | 43.81431 | 21.78715 | 37147 ft | 468 kts | 139° |
| 2026-04-27 17:31 | 43.76533 | 21.84702 | 37147 ft | 468 kts | 139° |
| 2026-04-27 17:31 | 43.71637 | 21.90675 | 37146 ft | 468 kts | 139° |
| 2026-04-27 17:32 | 43.64244 | 21.99666 | 37143 ft | 467 kts | 140° |
| 2026-04-27 17:33 | 43.59355 | 22.05595 | 37141 ft | 467 kts | 140° |
| 2026-04-27 17:33 | 43.54464 | 22.11513 | 37136 ft | 467 kts | 140° |
| 2026-04-27 17:34 | 43.49572 | 22.17419 | 37137 ft | 467 kts | 140° |
| 2026-04-27 17:34 | 43.44637 | 22.23364 | 37141 ft | 467 kts | 140° |
| 2026-04-27 17:35 | 43.39726 | 22.29268 | 37151 ft | 471 kts | 140° |
| 2026-04-27 17:35 | 43.34780 | 22.35199 | 37152 ft | 471 kts | 140° |
| 2026-04-27 17:36 | 43.29827 | 22.41125 | 37149 ft | 471 kts | 140° |
| 2026-04-27 17:36 | 43.24876 | 22.47036 | 37146 ft | 471 kts | 140° |
| 2026-04-27 17:37 | 43.20024 | 22.52816 | 37150 ft | 471 kts | 140° |
| 2026-04-27 17:37 | 43.15061 | 22.58716 | 37145 ft | 471 kts | 141° |
| 2026-04-27 17:38 | 43.10070 | 22.64634 | 37149 ft | 471 kts | 141° |
| 2026-04-27 17:38 | 43.05131 | 22.70479 | 37146 ft | 471 kts | 141° |
| 2026-04-27 17:39 | 43.00162 | 22.76347 | 37146 ft | 471 kts | 141° |
| 2026-04-27 17:39 | 42.95208 | 22.82257 | 37149 ft | 472 kts | 139° |
| 2026-04-27 17:40 | 42.90500 | 22.88345 | 37153 ft | 472 kts | 138° |
| 2026-04-27 17:40 | 42.85738 | 22.94509 | 37149 ft | 472 kts | 138° |
| 2026-04-27 17:41 | 42.81724 | 22.99645 | 37148 ft | 471 kts | 139° |
| 2026-04-27 17:41 | 42.76941 | 23.05735 | 37141 ft | 471 kts | 139° |
| 2026-04-27 17:42 | 42.72153 | 23.11817 | 37141 ft | 470 kts | 139° |
| 2026-04-27 17:42 | 42.67367 | 23.17884 | 37132 ft | 470 kts | 139° |
| 2026-04-27 17:43 | 42.62570 | 23.23950 | 37133 ft | 470 kts | 139° |
| 2026-04-27 17:43 | 42.57714 | 23.30079 | 37134 ft | 470 kts | 139° |
| 2026-04-27 17:44 | 42.52923 | 23.36111 | 37127 ft | 469 kts | 139° |
| 2026-04-27 17:44 | 42.48127 | 23.42137 | 37140 ft | 469 kts | 139° |
| 2026-04-27 17:45 | 42.43326 | 23.48156 | 37145 ft | 469 kts | 139° |
| 2026-04-27 17:45 | 42.38530 | 23.54156 | 37153 ft | 469 kts | 139° |
| 2026-04-27 17:46 | 42.33718 | 23.60161 | 37167 ft | 469 kts | 139° |
| 2026-04-27 17:46 | 42.28915 | 23.66139 | 37173 ft | 469 kts | 140° |
| 2026-04-27 17:47 | 42.24064 | 23.72051 | 37178 ft | 469 kts | 140° |
| 2026-04-27 17:47 | 42.19196 | 23.77954 | 37176 ft | 470 kts | 140° |
| 2026-04-27 17:48 | 42.14416 | 23.83753 | 37173 ft | 470 kts | 140° |
| 2026-04-27 17:48 | 42.09512 | 23.89693 | 37181 ft | 470 kts | 140° |
| 2026-04-27 17:49 | 42.04662 | 23.95556 | 37180 ft | 471 kts | 140° |
| 2026-04-27 17:49 | 41.99743 | 24.01489 | 37180 ft | 471 kts | 140° |
| 2026-04-27 17:50 | 41.94848 | 24.07380 | 37181 ft | 471 kts | 140° |
| 2026-04-27 17:50 | 41.87470 | 24.16239 | 37183 ft | 471 kts | 140° |
| 2026-04-27 17:51 | 41.82566 | 24.22111 | 37182 ft | 471 kts | 140° |
| 2026-04-27 17:51 | 41.77573 | 24.28076 | 37186 ft | 471 kts | 140° |
| 2026-04-27 17:52 | 41.72702 | 24.33883 | 37178 ft | 471 kts | 140° |
| 2026-04-27 17:52 | 41.68629 | 24.38728 | 37181 ft | 471 kts | 140° |
| 2026-04-27 17:53 | 41.62901 | 24.45529 | 37180 ft | 470 kts | 140° |
| 2026-04-27 17:53 | 41.57998 | 24.51337 | 37182 ft | 470 kts | 140° |
| 2026-04-27 17:54 | 41.53081 | 24.57149 | 37182 ft | 470 kts | 140° |
| 2026-04-27 17:54 | 41.48159 | 24.62955 | 37182 ft | 469 kts | 140° |
| 2026-04-27 17:55 | 41.44125 | 24.67704 | 37182 ft | 470 kts | 140° |
| 2026-04-27 17:55 | 41.39220 | 24.73485 | 37185 ft | 470 kts | 140° |
| 2026-04-27 17:56 | 41.34576 | 24.78995 | 37188 ft | 470 kts | 140° |
| 2026-04-27 17:56 | 41.29631 | 24.84848 | 37191 ft | 469 kts | 140° |
| 2026-04-27 17:57 | 41.24741 | 24.90617 | 37189 ft | 469 kts | 140° |
| 2026-04-27 17:57 | 41.19817 | 24.96413 | 37188 ft | 469 kts | 140° |
| 2026-04-27 17:58 | 41.14892 | 25.02199 | 37185 ft | 469 kts | 140° |
| 2026-04-27 17:58 | 41.10004 | 25.07929 | 37183 ft | 468 kts | 140° |
| 2026-04-27 17:59 | 41.05082 | 25.13686 | 37178 ft | 468 kts | 140° |
| 2026-04-27 17:59 | 41.00194 | 25.19393 | 37178 ft | 468 kts | 141° |
| 2026-04-27 18:00 | 40.95285 | 25.25112 | 37179 ft | 467 kts | 141° |
| 2026-04-27 18:00 | 40.90381 | 25.30813 | 37173 ft | 467 kts | 141° |
| 2026-04-27 18:01 | 40.85462 | 25.36522 | 37169 ft | 467 kts | 141° |
| 2026-04-27 18:01 | 40.80595 | 25.42160 | 37171 ft | 467 kts | 140° |
| 2026-04-27 18:02 | 40.76085 | 25.48464 | 37169 ft | 469 kts | 132° |
| 2026-04-27 18:02 | 40.71846 | 25.55008 | 37169 ft | 469 kts | 132° |
| 2026-04-27 18:03 | 40.67579 | 25.61549 | 37168 ft | 469 kts | 133° |
| 2026-04-27 18:03 | 40.63277 | 25.68124 | 37171 ft | 469 kts | 133° |
| 2026-04-27 18:04 | 40.58975 | 25.74684 | 37173 ft | 470 kts | 133° |
| 2026-04-27 18:04 | 40.54665 | 25.81243 | 37192 ft | 470 kts | 133° |
| 2026-04-27 18:05 | 40.50380 | 25.87749 | 37193 ft | 470 kts | 133° |
| 2026-04-27 18:05 | 40.46100 | 25.94189 | 37195 ft | 470 kts | 133° |
| 2026-04-27 18:06 | 40.41745 | 26.00686 | 37181 ft | 470 kts | 133° |
| 2026-04-27 18:06 | 40.37419 | 26.07133 | 37179 ft | 470 kts | 133° |
| 2026-04-27 18:07 | 40.33098 | 26.13566 | 37186 ft | 470 kts | 133° |
| 2026-04-27 18:07 | 40.29472 | 26.18953 | 37172 ft | 470 kts | 134° |
| 2026-04-27 18:08 | 40.25208 | 26.25275 | 37159 ft | 470 kts | 134° |
| 2026-04-27 18:08 | 40.20875 | 26.31688 | 37155 ft | 470 kts | 134° |
| 2026-04-27 18:09 | 40.16504 | 26.38143 | 37152 ft | 470 kts | 134° |
| 2026-04-27 18:09 | 40.12090 | 26.44430 | 37165 ft | 468 kts | 138° |
| 2026-04-27 18:10 | 40.07437 | 26.50388 | 37154 ft | 468 kts | 138° |
| 2026-04-27 18:10 | 40.03121 | 26.55927 | 37158 ft | 468 kts | 138° |
| 2026-04-27 18:11 | 39.98441 | 26.61927 | 37158 ft | 468 kts | 138° |
| 2026-04-27 18:11 | 39.94009 | 26.67598 | 37161 ft | 468 kts | 138° |
| 2026-04-27 18:12 | 39.89359 | 26.73535 | 37160 ft | 468 kts | 138° |
| 2026-04-27 18:12 | 39.84930 | 26.79178 | 37157 ft | 468 kts | 138° |
| 2026-04-27 18:13 | 39.80271 | 26.85103 | 37135 ft | 468 kts | 138° |
| 2026-04-27 18:13 | 39.75570 | 26.91059 | 37132 ft | 468 kts | 139° |
| 2026-04-27 18:14 | 39.70807 | 26.96904 | 37115 ft | 467 kts | 139° |
| 2026-04-27 18:14 | 39.66057 | 27.02702 | 37107 ft | 468 kts | 139° |
| 2026-04-27 18:15 | 39.61317 | 27.08497 | 37102 ft | 468 kts | 139° |
| 2026-04-27 18:15 | 39.56568 | 27.14299 | 37109 ft | 468 kts | 139° |
| 2026-04-27 18:16 | 39.51973 | 27.19863 | 37119 ft | 467 kts | 141° |
| 2026-04-27 18:16 | 39.46874 | 27.24663 | 37120 ft | 463 kts | 152° |
| 2026-04-27 18:17 | 39.41503 | 27.28550 | 37121 ft | 462 kts | 153° |
| 2026-04-27 18:17 | 39.35917 | 27.32598 | 37128 ft | 462 kts | 153° |